createdAt,value
2022-10-26T00:02:34.415Z,19.42
2022-10-26T00:12:44.722Z,17.50
2022-10-26T00:17:49.962Z,16.38
2022-10-26T00:22:55.471Z,14.40
2022-10-26T00:27:59.409Z,16.27
2022-10-26T00:33:03.380Z,20.52
2022-10-26T00:38:08.800Z,16.77
2022-10-26T00:43:17.914Z,19.00
2022-10-26T00:48:25.000Z,18.85
2022-10-26T00:53:30.627Z,19.63
2022-10-26T00:58:36.201Z,24.17
2022-10-26T01:03:40.747Z,24.85
2022-10-26T01:08:46.269Z,20.20
2022-10-26T01:13:50.536Z,17.88
2022-10-26T01:19:01.680Z,27.02
2022-10-26T01:24:24.406Z,28.13
2022-10-26T01:29:42.687Z,21.13
2022-10-26T01:34:51.497Z,18.15
2022-10-26T01:39:56.543Z,18.48
2022-10-26T01:45:04.218Z,18.75
2022-10-26T01:50:10.903Z,21.83
2022-10-26T01:55:46.847Z,17.02
2022-10-26T02:00:57.188Z,14.68
2022-10-26T02:06:08.485Z,23.02
2022-10-26T02:11:17.462Z,19.13
2022-10-26T02:16:26.452Z,23.85
2022-10-26T02:21:37.583Z,19.33
2022-10-26T02:26:42.596Z,17.00
2022-10-26T02:31:48.331Z,14.20
2022-10-26T02:36:55.011Z,18.38
2022-10-26T02:41:59.499Z,17.52
2022-10-26T02:47:03.738Z,17.35
2022-10-26T02:52:13.656Z,16.83
2022-10-26T02:57:20.062Z,15.20
2022-10-26T03:02:24.247Z,16.33
2022-10-26T03:07:29.647Z,16.20
2022-10-26T03:12:33.551Z,14.07
2022-10-26T03:17:37.593Z,19.23
2022-10-26T03:22:42.931Z,19.83
2022-10-26T03:27:47.180Z,18.13
2022-10-26T03:32:51.471Z,16.35
2022-10-26T03:37:56.796Z,15.13
2022-10-26T03:43:00.739Z,18.10
2022-10-26T03:48:04.910Z,17.38
2022-10-26T03:53:10.392Z,20.10
2022-10-26T03:58:14.366Z,13.63
2022-10-26T04:03:18.337Z,16.20
2022-10-26T04:08:23.647Z,17.63
2022-10-26T04:13:27.540Z,12.63
2022-10-26T04:18:31.383Z,11.60
2022-10-26T04:23:36.679Z,11.90
2022-10-26T04:28:40.608Z,11.63
2022-10-26T04:33:44.669Z,19.55
2022-10-26T04:38:51.418Z,22.70
2022-10-26T04:43:55.453Z,16.50
2022-10-26T04:48:59.410Z,13.07
2022-10-26T04:54:04.869Z,15.95
2022-10-26T04:59:08.810Z,16.70
2022-10-26T05:04:13.036Z,15.02
2022-10-26T05:09:18.407Z,13.70
2022-10-26T05:14:22.362Z,12.03
2022-10-26T05:19:26.569Z,12.52
2022-10-26T05:24:32.003Z,15.45
2022-10-26T05:29:35.949Z,20.00
2022-10-26T05:34:41.579Z,12.35
2022-10-26T05:39:47.104Z,18.25
2022-10-26T05:44:51.043Z,16.73
2022-10-26T05:49:54.996Z,18.27
2022-10-26T05:55:00.337Z,17.77
2022-10-26T06:00:08.006Z,16.27
2022-10-26T06:05:19.606Z,14.55
2022-10-26T06:10:26.047Z,15.68
2022-10-26T06:15:30.811Z,15.07
2022-10-26T06:20:48.049Z,19.20
2022-10-26T06:25:58.752Z,15.90
2022-10-26T06:31:02.756Z,18.17
2022-10-26T06:36:17.482Z,20.88
2022-10-26T06:41:24.308Z,17.73
2022-10-26T06:46:37.475Z,20.63
2022-10-26T06:51:45.791Z,14.70
2022-10-26T06:56:51.436Z,22.30
2022-10-26T07:01:55.425Z,21.25
2022-10-26T07:06:59.579Z,17.10
2022-10-26T07:12:05.391Z,20.00
2022-10-26T07:17:10.237Z,18.33
2022-10-26T07:22:14.193Z,13.75
2022-10-26T07:27:20.408Z,20.48
2022-10-26T07:32:24.384Z,16.95
2022-10-26T07:37:28.640Z,14.52
2022-10-26T07:42:33.866Z,20.60
2022-10-26T07:47:37.686Z,18.47
2022-10-26T07:52:41.881Z,13.68
2022-10-26T07:57:49.728Z,14.35
2022-10-26T08:02:57.871Z,11.40
2022-10-26T08:08:01.728Z,13.18
2022-10-26T08:13:06.999Z,12.50
2022-10-26T08:18:10.907Z,16.10
2022-10-26T08:23:14.912Z,8.25
2022-10-26T08:28:20.179Z,10.80
2022-10-26T08:33:24.795Z,14.20
2022-10-26T08:38:28.853Z,14.70
2022-10-26T08:43:40.029Z,9.07
2022-10-26T08:48:46.347Z,7.45
2022-10-26T08:53:53.074Z,4.68
2022-10-26T08:58:59.996Z,8.48
2022-10-26T09:04:05.112Z,8.88
2022-10-26T09:09:11.327Z,13.95
2022-10-26T09:14:20.005Z,10.25
2022-10-26T09:19:51.088Z,7.50
2022-10-26T09:24:56.672Z,17.38
2022-10-26T09:30:05.907Z,6.45
2022-10-26T09:35:16.904Z,8.52
2022-10-26T09:40:36.506Z,8.43
2022-10-26T09:45:41.263Z,7.43
2022-10-26T09:50:48.415Z,8.70
2022-10-26T09:56:06.817Z,8.35
2022-10-26T10:01:22.905Z,6.75
2022-10-26T10:06:27.789Z,11.15
2022-10-26T10:11:40.823Z,10.02
2022-10-26T10:16:51.727Z,9.82
2022-10-26T10:22:00.500Z,7.93
2022-10-26T10:27:09.812Z,10.85
2022-10-26T10:32:17.309Z,6.72
2022-10-26T10:37:25.750Z,11.15
2022-10-26T10:42:33.772Z,16.48
2022-10-26T10:47:38.177Z,7.68
2022-10-26T10:52:42.024Z,9.55
2022-10-26T10:58:05.579Z,13.30
2022-10-26T11:03:34.724Z,7.03
2022-10-26T11:08:42.201Z,17.13
2022-10-26T11:13:51.764Z,6.05
2022-10-26T11:18:59.062Z,9.70
2022-10-26T11:24:11.471Z,13.25
2022-10-26T11:29:24.799Z,9.55
2022-10-26T11:34:33.587Z,8.65
2022-10-26T11:39:42.647Z,9.13
2022-10-26T11:44:53.082Z,12.32
2022-10-26T11:50:03.918Z,10.13
2022-10-26T11:55:10.741Z,7.93
2022-10-26T12:00:20.655Z,6.07
2022-10-26T12:05:34.130Z,10.10
2022-10-26T12:10:41.460Z,9.40
2022-10-26T12:16:05.667Z,9.60
2022-10-26T12:21:10.035Z,10.60
2022-10-26T12:26:39.448Z,13.93
2022-10-26T12:31:45.242Z,13.77
2022-10-26T12:36:49.760Z,9.80
2022-10-26T12:41:58.125Z,15.02
2022-10-26T12:47:03.443Z,10.30
2022-10-26T12:52:20.492Z,10.25
2022-10-26T12:57:31.337Z,14.82
2022-10-26T13:02:50.390Z,11.95
2022-10-26T13:07:54.397Z,7.35
2022-10-26T13:12:59.657Z,7.28
2022-10-26T13:18:10.374Z,7.70
2022-10-26T13:23:17.798Z,12.52
2022-10-26T13:28:43.699Z,10.05
2022-10-26T13:33:49.023Z,9.38
2022-10-26T13:38:53.048Z,10.65
2022-10-26T13:43:57.355Z,13.97
2022-10-26T13:49:08.729Z,10.77
2022-10-26T13:54:21.187Z,6.53
2022-10-26T13:59:25.891Z,8.85
2022-10-26T14:04:31.030Z,12.67
2022-10-26T14:09:34.851Z,10.15
2022-10-26T14:14:39.475Z,13.00
2022-10-26T14:19:45.935Z,10.73
2022-10-26T14:24:53.300Z,7.10
2022-10-26T14:30:21.134Z,5.93
2022-10-26T14:35:25.296Z,8.02
2022-10-26T14:40:30.727Z,14.13
2022-10-26T14:45:48.039Z,15.23
2022-10-26T14:51:04.662Z,10.85
2022-10-26T14:56:21.873Z,10.32
2022-10-26T15:01:31.571Z,15.32
2022-10-26T15:06:44.442Z,9.95
2022-10-26T15:11:48.331Z,17.30
2022-10-26T15:16:55.358Z,14.35
2022-10-26T15:22:00.567Z,11.65
2022-10-26T15:27:05.596Z,11.73
2022-10-26T15:32:30.259Z,13.03
2022-10-26T15:37:35.461Z,18.13
2022-10-26T15:42:40.768Z,20.00
2022-10-26T15:47:44.738Z,14.10
2022-10-26T15:52:50.719Z,20.48
2022-10-26T15:57:54.734Z,19.08
2022-10-26T16:02:58.562Z,16.38
2022-10-26T16:08:03.704Z,19.10
2022-10-26T16:13:12.341Z,13.53
2022-10-26T16:18:16.316Z,16.77
2022-10-26T16:23:21.475Z,18.95
2022-10-26T16:28:25.271Z,18.33
2022-10-26T16:33:29.079Z,16.38
2022-10-26T16:38:34.982Z,16.10
2022-10-26T16:48:44.759Z,17.58
2022-10-26T16:53:51.083Z,14.43
2022-10-26T16:58:55.059Z,17.38
2022-10-26T17:03:58.899Z,16.83
2022-10-26T17:09:04.174Z,16.30
2022-10-26T17:14:07.983Z,26.60
2022-10-26T17:19:12.774Z,33.28
2022-10-26T17:24:19.036Z,24.08
2022-10-26T17:29:22.829Z,17.48
2022-10-26T17:34:26.656Z,20.00
2022-10-26T17:39:31.881Z,27.38
2022-10-26T17:44:39.125Z,26.20
2022-10-26T17:49:43.008Z,31.98
2022-10-26T17:54:48.194Z,21.15
2022-10-26T17:59:51.985Z,20.80
2022-10-26T18:04:55.757Z,17.52
2022-10-26T18:10:14.106Z,19.55
2022-10-26T18:15:25.160Z,16.52
2022-10-26T18:20:28.948Z,22.58
2022-10-26T18:25:36.192Z,24.20
2022-10-26T18:30:39.991Z,19.98
2022-10-26T18:35:43.821Z,25.98
2022-10-26T18:40:54.675Z,17.60
2022-10-26T18:46:06.035Z,17.52
2022-10-26T18:51:10.962Z,20.70
2022-10-26T18:56:17.723Z,20.63
2022-10-26T19:01:22.856Z,69.35
2022-10-26T19:06:28.138Z,68.87
2022-10-26T19:11:33.533Z,66.93
2022-10-26T19:16:45.767Z,44.92
2022-10-26T19:21:50.880Z,40.08
2022-10-26T19:26:56.695Z,31.25
2022-10-26T19:32:02.082Z,37.03
2022-10-26T19:37:06.154Z,34.30
2022-10-26T19:42:11.414Z,22.80
2022-10-26T19:47:15.175Z,18.80
2022-10-26T19:57:29.050Z,15.50
2022-10-26T20:02:32.850Z,12.83
2022-10-26T20:07:36.653Z,18.27
2022-10-26T20:12:41.862Z,11.98
2022-10-26T20:17:45.652Z,13.23
2022-10-26T20:22:49.710Z,16.42
2022-10-26T20:27:55.024Z,13.52
2022-10-26T20:32:59.207Z,29.73
2022-10-26T20:38:03.490Z,17.85
2022-10-26T20:43:10.633Z,14.60
2022-10-26T20:48:15.110Z,17.40
2022-10-26T20:53:24.987Z,18.85
2022-10-26T20:58:37.372Z,14.15
2022-10-26T21:03:41.171Z,17.50
2022-10-26T21:08:44.990Z,10.60
2022-10-26T21:13:50.874Z,13.85
2022-10-26T21:18:54.723Z,14.65
2022-10-26T21:23:58.518Z,10.00
2022-10-26T21:29:03.758Z,13.95
2022-10-26T21:34:07.669Z,10.63
2022-10-26T21:39:11.624Z,10.00
2022-10-26T21:44:35.363Z,11.48
2022-10-26T21:54:45.613Z,9.18
2022-10-26T21:59:50.770Z,9.25
2022-10-26T22:04:54.540Z,11.67
2022-10-26T22:10:10.358Z,12.23
2022-10-26T22:15:16.501Z,16.48
2022-10-26T22:20:20.290Z,6.97
2022-10-26T22:25:24.073Z,14.10
2022-10-26T22:30:29.257Z,13.05
2022-10-26T22:35:33.036Z,12.17
2022-10-26T22:40:36.814Z,8.70
2022-10-26T22:45:42.011Z,10.27
2022-10-26T22:50:45.786Z,11.18
2022-10-26T22:55:49.814Z,14.95
2022-10-26T23:00:55.107Z,10.82
2022-10-26T23:05:59.351Z,10.67
2022-10-26T23:11:05.182Z,11.50
2022-10-26T23:16:11.619Z,16.73
2022-10-26T23:21:16.394Z,12.35
2022-10-26T23:26:22.208Z,11.18
2022-10-26T23:31:28.875Z,12.07
2022-10-26T23:36:32.651Z,7.85
2022-10-26T23:41:36.484Z,7.60
2022-10-26T23:46:41.688Z,6.82
2022-10-26T23:51:45.481Z,9.85
2022-10-26T23:56:49.239Z,6.53
